Pagrindinis puslapis
METAR-TAF:

METAR-TAF

Oro uostai :

Resolute, Nunavutas, Kanada

platuma: 74-43N, ilguma: 094-59W, Aukštis: 67 m

Dabartinis oras

Ataskaita buvo paskelbta 58 minutes, ne 00:00 UTC
Vėjas 19 kt iš Šiaurės Rytų
Temperatūra 0°C
Drėgmė 80%
Slėgis 1009 hPa
Matomumas: 24.1 km
Su prošvaistėmis ne aukštis 7300 ft

METAR: CYRB 200000Z 04019KT 15SM BKN073 M00/M03 A2979 RMK AC7 SLP094

Laikas: 19:58 (00:58 UTC)

Prognozė

Ataskaita buvo paskelbta 1 valandą ir 20 minutes, ne 23:38 UTC
Prognozė galioja nuo 20 metu 00 UTC su 20 metu 24 UTC
Vėjas 18 kt iš Šiaurės/Šiaurės Rytų
Matomumas: 10 km
Su prošvaistėmis ne aukštis 7000 ft
Nuo 20 metu 0600 UTC
Vėjas 15 kt iš Šiaurės/Šiaurės Rytų
Matomumas: 10 km
Išsisklaidę debesys ne aukštis 500 ft
Tikimybė 30%
nuo 20 metu 06 UTC su 20 metu 15 UTC
Matomumas: 3.2 km
Su prošvaistėmis ne aukštis 500 ft
rūkana

TAF: CYRB 192338Z 2000/2024 03018KT P6SM BKN070 FM200600 03015KT P6SM SCT005 PROB30 2006/2015 2SM BR BKN005 RMK NXT FCST BY 200600Z

Orai ataskaitas ir orų prognozės (METAR, TAF).

turimą stotys yra geltonos ir raudonos taškus žemėlapyje.

Perkelti pele per norėdami pamatyti stoties vardą.

Tada spustelėkite, norėdami matyti oro stebėjimo ir prognozės.

Norėdami pakeisti žemėlapį: spustelėkite ant žalios mygtukų su juodo kryžiaus žemyn,; žalią mygtuką su brūkšneliu, jei norite nutolinti; arba žalių rodyklių gretimoms žemėlapius.


METAR-TAF: